Time;durP1;ratioP1;P1;durP2;ratioP2;P2;SDS_P1;SDS_P2;PMS_P1;PMS_P2;Temp;Humidity;BMP_temperature;BMP_pressure;BME280_temperature;BME280_humidity;BME280_pressure;Samples;Min_cycle;Max_cycle;Signal;HPM_P1;HPM_P2
2023/03/09 00:02:17;;;;;;;25.33;9.95;;;;;;;;;;5007410;28;20033;-54
2023/03/09 00:04:42;;;;;;;23.27;8.98;;;;;;;;;;5026389;28;20574;-55
2023/03/09 00:07:08;;;;;;;27.73;9.48;;;;;;;;;;5046937;28;20075;-54
2023/03/09 00:09:34;;;;;;;29.05;9.65;;;;;;;;;;5047033;28;20051;-55
2023/03/09 00:11:59;;;;;;;26.75;9.13;;;;;;;;;;5045064;28;20029;-54
2023/03/09 00:14:24;;;;;;;20.60;8.05;;;;;;;;;;5046735;28;20021;-53
2023/03/09 00:16:50;;;;;;;22.45;8.55;;;;;;;;;;5046746;28;20049;-54
2023/03/09 00:19:26;;;;;;;18.00;7.53;;;;;;;;;;5046471;28;20052;-53
2023/03/09 00:21:53;;;;;;;18.70;6.97;;;;;;;;;;5034857;28;20045;-55
2023/03/09 00:24:24;;;;;;;22.95;7.72;;;;;;;;;;5024404;28;20091;-54
2023/03/09 00:27:00;;;;;;;20.35;6.97;;;;;;;;;;5025407;28;20411;-53
2023/03/09 00:29:27;;;;;;;20.05;6.45;;;;;;;;;;5023990;28;20018;-54
2023/03/09 00:31:53;;;;;;;22.75;7.00;;;;;;;;;;5006581;28;20089;-55
2023/03/09 00:34:19;;;;;;;16.88;6.43;;;;;;;;;;5006341;28;20479;-55
2023/03/09 00:36:45;;;;;;;15.75;6.07;;;;;;;;;;5006312;28;20038;-54
2023/03/09 00:39:13;;;;;;;21.70;6.90;;;;;;;;;;5005959;28;20041;-54
2023/03/09 00:41:38;;;;;;;20.27;7.60;;;;;;;;;;5006206;28;20503;-55
2023/03/09 00:44:04;;;;;;;25.73;6.97;;;;;;;;;;5016654;28;20018;-56
2023/03/09 00:46:31;;;;;;;23.00;7.47;;;;;;;;;;5009962;28;20057;-54
2023/03/09 00:48:56;;;;;;;29.05;8.63;;;;;;;;;;5021491;28;20041;-55
2023/03/09 00:51:23;;;;;;;28.30;7.97;;;;;;;;;;5010578;28;20026;-53
2023/03/09 00:53:48;;;;;;;44.67;12.25;;;;;;;;;;5017468;28;20033;-54
2023/03/09 00:56:25;;;;;;;41.03;11.15;;;;;;;;;;5005860;28;20084;-55
2023/03/09 00:58:51;;;;;;;25.75;8.55;;;;;;;;;;5006180;28;20034;-56
2023/03/09 01:01:17;;;;;;;43.10;12.50;;;;;;;;;;5010810;28;20053;-53
2023/03/09 01:03:42;;;;;;;48.83;11.80;;;;;;;;;;5024204;28;20494;-55
2023/03/09 01:06:08;;;;;;;47.25;12.07;;;;;;;;;;5025566;28;20029;-54
2023/03/09 01:08:35;;;;;;;46.80;12.68;;;;;;;;;;5025881;28;20029;-54
2023/03/09 01:11:04;;;;;;;45.45;13.27;;;;;;;;;;5008124;28;20372;-55
2023/03/09 01:13:30;;;;;;;49.17;12.20;;;;;;;;;;5006340;28;20046;-51
2023/03/09 01:15:55;;;;;;;42.13;11.45;;;;;;;;;;4999697;28;20389;-54
2023/03/09 01:18:20;;;;;;;39.28;9.85;;;;;;;;;;5005890;28;20038;-56
2023/03/09 01:20:46;;;;;;;45.33;12.05;;;;;;;;;;5044117;28;20066;-55
2023/03/09 01:23:11;;;;;;;52.92;12.20;;;;;;;;;;5027276;28;20384;-55
2023/03/09 01:25:36;;;;;;;44.45;13.25;;;;;;;;;;5025346;28;20435;-53
2023/03/09 01:28:01;;;;;;;40.88;10.55;;;;;;;;;;5025821;28;20442;-53
2023/03/09 01:30:27;;;;;;;43.75;10.95;;;;;;;;;;5024944;28;20087;-53
2023/03/09 01:32:53;;;;;;;43.80;9.38;;;;;;;;;;5026200;28;20046;-54
2023/03/09 01:35:18;;;;;;;47.00;10.82;;;;;;;;;;5016356;28;20018;-55
2023/03/09 01:37:44;;;;;;;50.63;9.57;;;;;;;;;;5023406;28;20046;-54
2023/03/09 01:40:15;;;;;;;40.45;8.18;;;;;;;;;;5025846;28;20080;-52
2023/03/09 01:42:40;;;;;;;29.98;6.50;;;;;;;;;;5024832;28;20053;-55
2023/03/09 01:45:18;;;;;;;27.98;6.13;;;;;;;;;;5025298;28;20376;-55
2023/03/09 01:47:44;;;;;;;23.15;6.15;;;;;;;;;;5025158;28;20036;-56
2023/03/09 01:50:10;;;;;;;21.13;4.88;;;;;;;;;;5026162;28;20055;-54
2023/03/09 01:52:36;;;;;;;31.27;5.93;;;;;;;;;;5024918;28;20033;-55
2023/03/09 01:55:18;;;;;;;28.98;5.10;;;;;;;;;;5025487;28;20044;-55
2023/03/09 01:57:50;;;;;;;27.02;4.82;;;;;;;;;;5026278;28;20044;-54
2023/03/09 02:00:18;;;;;;;31.05;4.50;;;;;;;;;;5028936;28;20086;-55
2023/03/09 02:02:48;;;;;;;30.80;6.43;;;;;;;;;;5029378;28;20590;-54
2023/03/09 02:05:21;;;;;;;26.42;5.15;;;;;;;;;;5028793;28;20014;-52
2023/03/09 02:07:50;;;;;;;31.63;4.80;;;;;;;;;;5020378;28;20515;-55
2023/03/09 02:10:25;;;;;;;28.33;4.75;;;;;;;;;;5008630;28;20032;-55
2023/03/09 02:12:56;;;;;;;23.63;4.57;;;;;;;;;;5008911;28;20507;-53
2023/03/09 02:15:21;;;;;;;33.20;4.97;;;;;;;;;;5007746;28;20026;-55
2023/03/09 02:17:49;;;;;;;26.80;5.65;;;;;;;;;;5008118;28;20635;-55
2023/03/09 02:20:24;;;;;;;24.52;4.30;;;;;;;;;;5036837;28;20171;-56
2023/03/09 02:22:50;;;;;;;27.55;4.05;;;;;;;;;;5047153;28;20578;-56
2023/03/09 02:25:30;;;;;;;30.48;5.18;;;;;;;;;;5047857;28;20411;-56
2023/03/09 02:27:56;;;;;;;40.63;5.00;;;;;;;;;;5028785;28;20558;-55
2023/03/09 02:30:26;;;;;;;25.25;4.50;;;;;;;;;;5026575;28;20107;-54
2023/03/09 02:33:02;;;;;;;36.03;4.57;;;;;;;;;;5025998;28;20435;-56
2023/03/09 02:35:27;;;;;;;29.20;4.38;;;;;;;;;;5027621;28;20044;-55
2023/03/09 02:37:52;;;;;;;27.33;5.15;;;;;;;;;;5027413;28;20535;-56
2023/03/09 02:40:28;;;;;;;25.60;3.50;;;;;;;;;;5025920;28;20037;-54
2023/03/09 02:42:53;;;;;;;30.75;3.28;;;;;;;;;;5027634;28;20790;-55
2023/03/09 02:45:21;;;;;;;32.40;3.80;;;;;;;;;;5026605;28;20033;-56
2023/03/09 02:47:47;;;;;;;31.08;3.40;;;;;;;;;;5027406;28;20452;-55
2023/03/09 02:50:13;;;;;;;32.05;2.80;;;;;;;;;;5027696;28;20036;-55
2023/03/09 02:52:38;;;;;;;28.10;3.67;;;;;;;;;;5026335;28;20041;-55
2023/03/09 02:55:04;;;;;;;22.58;4.50;;;;;;;;;;5027240;28;20036;-54
2023/03/09 02:57:30;;;;;;;28.98;3.17;;;;;;;;;;5026700;28;20096;-54
2023/03/09 02:59:55;;;;;;;25.42;3.90;;;;;;;;;;5027150;28;20479;-52
2023/03/09 03:02:20;;;;;;;21.35;2.63;;;;;;;;;;5026301;28;20480;-56
2023/03/09 03:04:46;;;;;;;17.55;2.10;;;;;;;;;;5019416;28;20099;-55
2023/03/09 03:07:11;;;;;;;29.48;3.30;;;;;;;;;;5025976;28;20041;-55
2023/03/09 03:09:36;;;;;;;18.42;2.38;;;;;;;;;;5026362;28;20040;-54
2023/03/09 03:12:02;;;;;;;27.20;2.80;;;;;;;;;;5025920;28;20037;-56
2023/03/09 03:14:27;;;;;;;19.55;3.03;;;;;;;;;;5026327;28;20062;-54
2023/03/09 03:16:53;;;;;;;17.17;2.33;;;;;;;;;;4989374;28;1097853;-54
2023/03/09 03:19:18;;;;;;;18.02;3.33;;;;;;;;;;5034798;28;20033;-54
2023/03/09 03:21:43;;;;;;;18.17;3.08;;;;;;;;;;5046682;28;20044;-54
2023/03/09 03:24:09;;;;;;;26.02;4.20;;;;;;;;;;5046761;28;20036;-55
2023/03/09 03:26:34;;;;;;;19.17;2.90;;;;;;;;;;5047287;28;20109;-56
2023/03/09 03:28:59;;;;;;;17.83;2.42;;;;;;;;;;5017474;28;20013;-55
2023/03/09 03:31:25;;;;;;;17.60;2.50;;;;;;;;;;5026975;28;20083;-54
2023/03/09 03:33:50;;;;;;;22.67;3.10;;;;;;;;;;5027941;28;20040;-56
2023/03/09 03:36:15;;;;;;;28.75;2.53;;;;;;;;;;5027036;28;20631;-54
2023/03/09 03:38:41;;;;;;;15.82;2.58;;;;;;;;;;5027439;28;20036;-55
2023/03/09 03:41:06;;;;;;;15.95;2.55;;;;;;;;;;5025828;28;20105;-54
2023/03/09 03:43:31;;;;;;;15.73;2.05;;;;;;;;;;5025833;28;20411;-55
2023/03/09 03:45:57;;;;;;;32.17;3.80;;;;;;;;;;5026673;28;20034;-54
2023/03/09 03:48:22;;;;;;;22.27;2.75;;;;;;;;;;5026874;28;20040;-56
2023/03/09 03:50:47;;;;;;;18.38;2.33;;;;;;;;;;5027415;28;20079;-53
2023/03/09 03:53:13;;;;;;;16.60;2.28;;;;;;;;;;5026587;28;20029;-55
2023/03/09 03:55:38;;;;;;;16.88;2.83;;;;;;;;;;5023822;28;20187;-55
2023/03/09 03:58:03;;;;;;;21.55;2.63;;;;;;;;;;5026901;28;20142;-56
2023/03/09 04:00:29;;;;;;;20.70;2.63;;;;;;;;;;5026508;28;20695;-55
2023/03/09 04:02:54;;;;;;;21.77;2.78;;;;;;;;;;5026629;28;20032;-55
2023/03/09 04:05:20;;;;;;;17.80;2.70;;;;;;;;;;5027690;28;20410;-54
2023/03/09 04:07:46;;;;;;;22.55;3.58;;;;;;;;;;5021231;28;20585;-55
2023/03/09 04:10:11;;;;;;;15.52;2.55;;;;;;;;;;5014177;28;20101;-54
2023/03/09 04:12:37;;;;;;;20.25;2.30;;;;;;;;;;5006994;28;20045;-55
2023/03/09 04:15:02;;;;;;;20.00;2.20;;;;;;;;;;5006480;28;20034;-56
2023/03/09 04:17:28;;;;;;;22.98;2.88;;;;;;;;;;5006750;28;20547;-55
2023/03/09 04:19:53;;;;;;;26.55;2.13;;;;;;;;;;5021261;28;20028;-54
2023/03/09 04:22:19;;;;;;;10.65;1.92;;;;;;;;;;5026403;28;20033;-56
2023/03/09 04:24:47;;;;;;;16.25;2.30;;;;;;;;;;5026589;28;20464;-56
2023/03/09 04:27:13;;;;;;;15.38;2.65;;;;;;;;;;5026399;28;20037;-54
2023/03/09 04:29:39;;;;;;;20.70;3.53;;;;;;;;;;5026582;28;20759;-55
2023/03/09 04:32:05;;;;;;;18.00;2.13;;;;;;;;;;5024629;28;20530;-55
2023/03/09 04:34:30;;;;;;;17.40;2.30;;;;;;;;;;5015758;28;20038;-54
2023/03/09 04:36:55;;;;;;;16.50;2.45;;;;;;;;;;5009242;28;20034;-54
2023/03/09 04:39:21;;;;;;;16.33;2.38;;;;;;;;;;5007003;28;20038;-54
2023/03/09 04:41:46;;;;;;;8.93;1.95;;;;;;;;;;5005629;28;20038;-55
2023/03/09 04:44:12;;;;;;;17.13;2.60;;;;;;;;;;5007068;28;20119;-54
2023/03/09 04:46:37;;;;;;;12.30;2.15;;;;;;;;;;5006462;28;20516;-54
2023/03/09 04:49:02;;;;;;;15.38;2.80;;;;;;;;;;5006599;28;20034;-52
2023/03/09 04:51:29;;;;;;;10.02;2.42;;;;;;;;;;5018194;28;20487;-55
2023/03/09 04:53:55;;;;;;;11.52;2.15;;;;;;;;;;5025677;28;20025;-54
2023/03/09 04:56:20;;;;;;;17.63;2.95;;;;;;;;;;5026549;28;20025;-55
2023/03/09 04:58:46;;;;;;;12.63;2.83;;;;;;;;;;5022220;28;20031;-55
2023/03/09 05:01:11;;;;;;;13.63;2.60;;;;;;;;;;5024890;28;20040;-52
2023/03/09 05:03:37;;;;;;;13.52;2.97;;;;;;;;;;5025946;28;20039;-54
2023/03/09 05:06:02;;;;;;;10.82;2.15;;;;;;;;;;5026030;28;20034;-56
2023/03/09 05:08:28;;;;;;;12.20;2.63;;;;;;;;;;5025415;28;20104;-56
2023/03/09 05:10:53;;;;;;;14.55;2.78;;;;;;;;;;5025958;28;20060;-55
2023/03/09 05:13:18;;;;;;;13.75;2.38;;;;;;;;;;5024602;28;20044;-56
2023/03/09 05:15:43;;;;;;;13.02;3.03;;;;;;;;;;5025337;28;20045;-54
2023/03/09 05:18:10;;;;;;;16.48;2.78;;;;;;;;;;5025971;28;20037;-55
2023/03/09 05:20:37;;;;;;;11.02;2.35;;;;;;;;;;5033276;28;20018;-55
2023/03/09 05:23:03;;;;;;;15.73;2.90;;;;;;;;;;5028981;28;20406;-55
2023/03/09 05:25:28;;;;;;;14.27;2.30;;;;;;;;;;5023479;28;20030;-55
2023/03/09 05:27:53;;;;;;;4.63;1.38;;;;;;;;;;5025960;28;20049;-55
2023/03/09 05:30:19;;;;;;;8.13;2.00;;;;;;;;;;5021274;28;20486;-55
2023/03/09 05:32:51;;;;;;;5.53;1.83;;;;;;;;;;5024472;28;20099;-55
2023/03/09 05:35:18;;;;;;;8.82;1.85;;;;;;;;;;5025614;28;20049;-55
2023/03/09 05:37:44;;;;;;;8.13;1.90;;;;;;;;;;5025655;28;20041;-53
2023/03/09 05:40:11;;;;;;;5.38;1.70;;;;;;;;;;5025363;28;20037;-56
2023/03/09 05:42:36;;;;;;;10.95;2.38;;;;;;;;;;5022591;28;20037;-56
2023/03/09 05:45:03;;;;;;;5.32;1.27;;;;;;;;;;5031147;28;20379;-56
2023/03/09 05:47:28;;;;;;;9.20;2.90;;;;;;;;;;5044981;28;20020;-55
2023/03/09 05:49:54;;;;;;;18.17;2.80;;;;;;;;;;5045682;28;20024;-55
2023/03/09 05:52:19;;;;;;;10.25;3.15;;;;;;;;;;5044716;28;20099;-55
2023/03/09 05:54:45;;;;;;;15.98;2.85;;;;;;;;;;5023884;28;20033;-56
2023/03/09 05:57:11;;;;;;;12.77;2.75;;;;;;;;;;5022851;28;20029;-55
2023/03/09 05:59:36;;;;;;;14.23;2.70;;;;;;;;;;5023170;28;20026;-55
2023/03/09 06:02:02;;;;;;;9.63;2.20;;;;;;;;;;5024883;28;20017;-56
2023/03/09 06:04:27;;;;;;;8.75;2.40;;;;;;;;;;5025695;28;20041;-55
2023/03/09 06:06:52;;;;;;;15.85;2.53;;;;;;;;;;5024274;28;20637;-55
2023/03/09 06:09:18;;;;;;;37.30;7.82;;;;;;;;;;5025567;28;20029;-56
2023/03/09 06:11:44;;;;;;;30.67;8.02;;;;;;;;;;5024825;28;20025;-55
2023/03/09 06:14:09;;;;;;;37.08;8.98;;;;;;;;;;5023983;28;20071;-56
2023/03/09 06:16:34;;;;;;;35.67;10.30;;;;;;;;;;5024921;28;20042;-53
2023/03/09 06:19:00;;;;;;;40.10;9.30;;;;;;;;;;5029514;28;20028;-54
2023/03/09 06:21:25;;;;;;;49.05;10.63;;;;;;;;;;5044254;28;20033;-55
2023/03/09 06:23:55;;;;;;;32.47;8.45;;;;;;;;;;5045249;28;20108;-55
2023/03/09 06:26:21;;;;;;;45.22;10.73;;;;;;;;;;5044875;28;20021;-55
2023/03/09 06:28:46;;;;;;;48.60;11.75;;;;;;;;;;5044732;28;20044;-55
2023/03/09 06:31:13;;;;;;;32.20;7.63;;;;;;;;;;5016224;28;20033;-56
2023/03/09 06:33:39;;;;;;;60.42;13.07;;;;;;;;;;5019920;28;20836;-54
2023/03/09 06:36:06;;;;;;;69.50;15.15;;;;;;;;;;5015739;28;20030;-55
2023/03/09 06:38:31;;;;;;;63.92;12.98;;;;;;;;;;5004019;28;20514;-55
2023/03/09 06:40:57;;;;;;;54.65;13.25;;;;;;;;;;5011667;28;20025;-55
2023/03/09 06:43:22;;;;;;;36.63;9.50;;;;;;;;;;5023282;28;20090;-55
2023/03/09 06:45:49;;;;;;;51.08;11.90;;;;;;;;;;5026674;28;20053;-55
2023/03/09 06:48:14;;;;;;;67.25;13.70;;;;;;;;;;5028598;28;20053;-55
2023/03/09 06:50:40;;;;;;;40.47;10.15;;;;;;;;;;5025512;28;20114;-56
2023/03/09 06:53:06;;;;;;;62.17;13.80;;;;;;;;;;5028157;28;20097;-55
2023/03/09 06:55:31;;;;;;;65.65;12.77;;;;;;;;;;5026934;28;20515;-56
2023/03/09 06:57:56;;;;;;;53.63;11.65;;;;;;;;;;5026578;28;20082;-55
2023/03/09 07:00:22;;;;;;;56.17;11.43;;;;;;;;;;5016513;28;20030;-54
2023/03/09 07:02:47;;;;;;;55.60;11.10;;;;;;;;;;5025843;28;20507;-53
2023/03/09 07:05:12;;;;;;;60.63;12.98;;;;;;;;;;5020713;28;20026;-55
2023/03/09 07:07:39;;;;;;;64.28;14.57;;;;;;;;;;5022620;28;20040;-55
2023/03/09 07:10:05;;;;;;;55.65;12.43;;;;;;;;;;5024257;28;20479;-56
2023/03/09 07:12:31;;;;;;;50.08;10.77;;;;;;;;;;5022334;28;20538;-55
2023/03/09 07:14:56;;;;;;;52.00;11.13;;;;;;;;;;5023257;28;20029;-55
2023/03/09 07:17:22;;;;;;;41.97;10.13;;;;;;;;;;5026345;28;20534;-55
2023/03/09 07:19:47;;;;;;;60.10;12.60;;;;;;;;;;5037490;28;20083;-55
2023/03/09 07:22:13;;;;;;;59.17;12.48;;;;;;;;;;5034134;28;20037;-55
2023/03/09 07:24:38;;;;;;;37.63;10.98;;;;;;;;;;5024767;28;20128;-55
2023/03/09 07:27:04;;;;;;;58.50;12.77;;;;;;;;;;5025232;28;20038;-54
2023/03/09 07:29:29;;;;;;;53.50;13.25;;;;;;;;;;5026436;28;20561;-55
2023/03/09 07:31:55;;;;;;;50.55;12.80;;;;;;;;;;5026794;28;20017;-56
2023/03/09 07:34:20;;;;;;;50.00;11.65;;;;;;;;;;5022821;28;20032;-56
2023/03/09 07:36:47;;;;;;;70.68;14.68;;;;;;;;;;5022852;28;20025;-55
2023/03/09 07:39:12;;;;;;;72.95;15.18;;;;;;;;;;5025809;28;20053;-56
2023/03/09 07:41:37;;;;;;;67.20;14.00;;;;;;;;;;5025709;28;20873;-53
2023/03/09 07:44:03;;;;;;;58.10;14.05;;;;;;;;;;5022464;28;20021;-54
2023/03/09 07:46:28;;;;;;;77.90;16.02;;;;;;;;;;5021660;28;20120;-54
2023/03/09 07:48:54;;;;;;;72.60;14.90;;;;;;;;;;5025973;28;20464;-54
2023/03/09 07:51:19;;;;;;;57.92;13.90;;;;;;;;;;5025828;28;20466;-56
2023/03/09 07:53:45;;;;;;;66.00;13.40;;;;;;;;;;5025260;28;20029;-53
2023/03/09 07:56:10;;;;;;;79.13;17.23;;;;;;;;;;5026033;28;20025;-54
2023/03/09 07:58:38;;;;;;;80.13;18.10;;;;;;;;;;5026185;28;20056;-54
2023/03/09 08:01:06;;;;;;;62.40;14.18;;;;;;;;;;5024986;28;20061;-55
2023/03/09 08:03:31;;;;;;;81.78;17.17;;;;;;;;;;5035600;28;20049;-54
2023/03/09 08:05:58;;;;;;;65.35;14.48;;;;;;;;;;5045693;28;20059;-55
2023/03/09 08:08:25;;;;;;;67.20;15.57;;;;;;;;;;5046940;28;20032;-55
2023/03/09 08:10:52;;;;;;;64.10;14.18;;;;;;;;;;5046149;28;20414;-55
2023/03/09 08:13:19;;;;;;;95.32;19.02;;;;;;;;;;5044934;28;20472;-58
2023/03/09 08:15:45;;;;;;;76.50;17.52;;;;;;;;;;5015117;28;20053;-54
2023/03/09 08:18:11;;;;;;;71.90;15.35;;;;;;;;;;5018733;28;20045;-55
2023/03/09 08:20:36;;;;;;;67.65;15.05;;;;;;;;;;5015768;28;20101;-54
2023/03/09 08:23:03;;;;;;;77.15;17.20;;;;;;;;;;5028091;28;20017;-55
2023/03/09 08:25:29;;;;;;;84.15;16.27;;;;;;;;;;5024025;28;20033;-55
2023/03/09 08:27:55;;;;;;;72.55;15.25;;;;;;;;;;5025211;28;20076;-55
2023/03/09 08:30:21;;;;;;;73.55;15.50;;;;;;;;;;5025394;28;20041;-56
2023/03/09 08:32:51;;;;;;;70.82;13.93;;;;;;;;;;5024306;28;20044;-55
2023/03/09 08:35:18;;;;;;;66.20;13.88;;;;;;;;;;5025791;28;20087;-54
2023/03/09 08:37:43;;;;;;;67.20;14.27;;;;;;;;;;5025705;28;21014;-55
2023/03/09 08:40:11;;;;;;;52.60;12.43;;;;;;;;;;5017337;28;20037;-54
2023/03/09 08:42:37;;;;;;;42.88;11.27;;;;;;;;;;5017309;28;20491;-54
2023/03/09 08:45:03;;;;;;;48.15;11.00;;;;;;;;;;5009594;28;20040;-55
2023/03/09 08:47:29;;;;;;;49.30;11.15;;;;;;;;;;5024185;28;20026;-55
2023/03/09 08:49:54;;;;;;;48.85;9.50;;;;;;;;;;5026246;28;20477;-54
2023/03/09 08:52:20;;;;;;;33.55;7.60;;;;;;;;;;5024630;28;20120;-56
2023/03/09 08:54:46;;;;;;;38.00;9.20;;;;;;;;;;5023020;28;20120;-54
2023/03/09 08:57:11;;;;;;;34.40;8.13;;;;;;;;;;5022642;28;20124;-55
2023/03/09 08:59:37;;;;;;;41.45;8.57;;;;;;;;;;5016552;28;20123;-55
2023/03/09 09:02:02;;;;;;;42.67;9.98;;;;;;;;;;5025206;28;20029;-54
2023/03/09 09:04:28;;;;;;;44.65;9.85;;;;;;;;;;5045598;28;20048;-55
2023/03/09 09:06:54;;;;;;;35.60;8.05;;;;;;;;;;5044396;28;20071;-55
2023/03/09 09:09:20;;;;;;;37.20;8.88;;;;;;;;;;5045424;28;20025;-55
2023/03/09 09:11:46;;;;;;;35.13;7.65;;;;;;;;;;5044729;28;25440;-54
2023/03/09 09:14:12;;;;;;;35.30;8.10;;;;;;;;;;5045641;28;20025;-55
2023/03/09 09:16:37;;;;;;;20.25;5.78;;;;;;;;;;5044955;28;20063;-55
2023/03/09 09:19:02;;;;;;;27.75;7.05;;;;;;;;;;5045492;28;20057;-55
2023/03/09 09:21:28;;;;;;;22.45;6.50;;;;;;;;;;5044567;28;20033;-54
2023/03/09 09:23:54;;;;;;;16.58;3.88;;;;;;;;;;5044978;28;20060;-54
2023/03/09 09:26:20;;;;;;;17.08;4.63;;;;;;;;;;5045340;28;20035;-56
2023/03/09 09:28:46;;;;;;;21.45;4.72;;;;;;;;;;5043714;28;20033;-54
2023/03/09 09:31:16;;;;;;;20.08;4.13;;;;;;;;;;5044378;28;20602;-55
2023/03/09 09:33:42;;;;;;;23.50;4.75;;;;;;;;;;5044282;28;20573;-55
2023/03/09 09:36:13;;;;;;;22.00;5.40;;;;;;;;;;5044194;28;20033;-54
2023/03/09 09:38:39;;;;;;;17.65;4.40;;;;;;;;;;5038055;28;20036;-52
2023/03/09 09:41:35;;;;;;;26.85;4.70;;;;;;;;;;5019993;28;20052;-54
2023/03/09 09:44:03;;;;;;;24.60;4.25;;;;;;;;;;5033437;28;20094;-55
2023/03/09 09:46:31;;;;;;;27.27;4.65;;;;;;;;;;5033513;28;20064;-53
2023/03/09 09:48:58;;;;;;;17.80;4.10;;;;;;;;;;5030982;28;20064;-54
2023/03/09 09:51:46;;;;;;;29.80;4.35;;;;;;;;;;5034192;28;20067;-53
2023/03/09 09:54:36;;;;;;;19.67;3.95;;;;;;;;;;5033369;28;20095;-55
2023/03/09 09:57:08;;;;;;;16.10;3.75;;;;;;;;;;5034898;28;20175;-55
2023/03/09 09:59:42;;;;;;;24.80;4.33;;;;;;;;;;5039703;28;20029;-54
2023/03/09 10:02:07;;;;;;;21.60;4.55;;;;;;;;;;5025626;28;20033;-55
2023/03/09 10:04:40;;;;;;;20.17;4.90;;;;;;;;;;5022088;28;20124;-55
2023/03/09 10:07:14;;;;;;;25.70;4.93;;;;;;;;;;5006100;28;20045;-55
2023/03/09 10:09:42;;;;;;;21.95;6.07;;;;;;;;;;5004734;28;20049;-55
2023/03/09 10:12:15;;;;;;;26.33;5.10;;;;;;;;;;5012912;28;20042;-54
2023/03/09 10:14:47;;;;;;;19.95;4.32;;;;;;;;;;5022170;28;20534;-55
2023/03/09 10:17:34;;;;;;;26.08;5.93;;;;;;;;;;5024474;28;20069;-55
2023/03/09 10:20:13;;;;;;;28.13;5.57;;;;;;;;;;5041116;28;20850;-55
2023/03/09 10:22:39;;;;;;;22.50;4.85;;;;;;;;;;5020004;28;20148;-55
2023/03/09 10:25:11;;;;;;;31.80;5.88;;;;;;;;;;5022524;28;20091;-54
2023/03/09 10:28:04;;;;;;;19.42;4.90;;;;;;;;;;5028403;28;20590;-55
2023/03/09 10:30:48;;;;;;;30.30;5.35;;;;;;;;;;5028315;28;20038;-55
2023/03/09 10:33:19;;;;;;;28.15;6.18;;;;;;;;;;5028025;28;20076;-55
2023/03/09 10:35:47;;;;;;;32.53;4.97;;;;;;;;;;5028184;28;20037;-54
2023/03/09 10:38:17;;;;;;;28.13;5.15;;;;;;;;;;5028180;28;20033;-55
2023/03/09 10:40:47;;;;;;;21.92;4.30;;;;;;;;;;5027386;28;20044;-56
2023/03/09 10:43:26;;;;;;;19.35;3.13;;;;;;;;;;5026758;28;20128;-55
2023/03/09 10:45:53;;;;;;;14.63;3.65;;;;;;;;;;5027753;28;20065;-55
2023/03/09 10:48:21;;;;;;;10.90;2.55;;;;;;;;;;5027966;28;20230;-56
2023/03/09 10:51:02;;;;;;;15.15;4.10;;;;;;;;;;5026527;28;20033;-55
2023/03/09 10:53:44;;;;;;;9.07;2.35;;;;;;;;;;5016145;28;20034;-55
2023/03/09 10:56:24;;;;;;;11.48;2.55;;;;;;;;;;5028056;28;20021;-54
2023/03/09 10:59:07;;;;;;;10.95;2.60;;;;;;;;;;5027035;28;20037;-55
2023/03/09 11:01:37;;;;;;;;;;;;;;;;;;5023997;28;20037;-54
2023/03/09 11:04:22;;;;;;;15.07;2.65;;;;;;;;;;5028253;28;19924;-56
2023/03/09 11:06:52;;;;;;;12.30;3.35;;;;;;;;;;5026840;28;20676;-53
2023/03/09 11:09:54;;;;;;;19.42;3.80;;;;;;;;;;5027249;28;20037;-56
2023/03/09 11:12:27;;;;;;;16.17;4.15;;;;;;;;;;5020788;28;20461;-54
2023/03/09 11:14:58;;;;;;;20.23;3.78;;;;;;;;;;5019410;28;20034;-55
2023/03/09 11:17:46;;;;;;;14.93;3.40;;;;;;;;;;5027350;28;20103;-56
2023/03/09 11:20:15;;;;;;;24.65;4.43;;;;;;;;;;5028429;28;20053;-54
2023/03/09 11:22:47;;;;;;;18.42;3.67;;;;;;;;;;5023388;28;20046;-55
2023/03/09 11:25:39;;;;;;;20.77;4.07;;;;;;;;;;5027025;28;20095;-54
2023/03/09 11:28:27;;;;;;;27.23;3.67;;;;;;;;;;5026766;28;20037;-54
2023/03/09 11:30:55;;;;;;;19.77;3.63;;;;;;;;;;5026740;28;20699;-55
2023/03/09 11:33:21;;;;;;;27.42;4.80;;;;;;;;;;5022102;28;20041;-53
2023/03/09 11:35:51;;;;;;;28.50;4.25;;;;;;;;;;5025818;28;20041;-55
2023/03/09 11:38:19;;;;;;;18.33;3.40;;;;;;;;;;5028234;28;20033;-54
2023/03/09 11:40:46;;;;;;;25.90;4.22;;;;;;;;;;5026505;28;20471;-55
2023/03/09 11:43:21;;;;;;;34.85;4.53;;;;;;;;;;5025441;28;20099;-54
2023/03/09 11:45:47;;;;;;;37.90;5.22;;;;;;;;;;5024998;28;20084;-54
2023/03/09 11:48:23;;;;;;;33.63;4.97;;;;;;;;;;5025593;28;20143;-55
2023/03/09 11:51:04;;;;;;;25.60;4.50;;;;;;;;;;5021432;28;20124;-54
2023/03/09 11:53:51;;;;;;;27.77;4.72;;;;;;;;;;5024612;28;20029;-55
2023/03/09 11:56:26;;;;;;;31.90;7.22;;;;;;;;;;5017805;28;20029;-55
2023/03/09 11:58:58;;;;;;;24.02;3.88;;;;;;;;;;5025916;28;20041;-52
2023/03/09 12:02:03;;;;;;;22.88;3.70;;;;;;;;;;5024991;28;20041;-54
2023/03/09 12:04:28;;;;;;;32.63;4.60;;;;;;;;;;4988838;28;20092;-55
2023/03/09 12:07:01;;;;;;;31.55;4.07;;;;;;;;;;5026075;28;20046;-55
2023/03/09 12:09:38;;;;;;;28.50;4.25;;;;;;;;;;5026061;28;20029;-55
2023/03/09 12:12:25;;;;;;;36.70;4.15;;;;;;;;;;5026590;28;20707;-54
2023/03/09 12:15:20;;;;;;;16.30;4.03;;;;;;;;;;5023522;28;20396;-54
2023/03/09 12:17:53;;;;;;;36.75;4.28;;;;;;;;;;5022353;28;20049;-54
2023/03/09 12:20:37;;;;;;;31.73;4.43;;;;;;;;;;5041628;28;20029;-55
2023/03/09 12:23:03;;;;;;;21.45;2.97;;;;;;;;;;5047036;28;20044;-55
2023/03/09 12:25:28;;;;;;;23.23;2.83;;;;;;;;;;5037474;28;20057;-55
2023/03/09 12:27:57;;;;;;;16.27;2.75;;;;;;;;;;5011881;28;20057;-55
2023/03/09 12:30:42;;;;;;;20.70;3.00;;;;;;;;;;5006033;28;20030;-54
2023/03/09 12:33:10;;;;;;;21.70;3.20;;;;;;;;;;5006213;28;20079;-56
2023/03/09 12:35:41;;;;;;;16.42;3.17;;;;;;;;;;5039137;28;20051;-54
2023/03/09 12:38:21;;;;;;;15.85;2.75;;;;;;;;;;5045469;28;20028;-56
2023/03/09 12:40:48;;;;;;;12.48;2.72;;;;;;;;;;5045223;28;20566;-55
2023/03/09 12:43:13;;;;;;;10.82;2.65;;;;;;;;;;5021306;28;20107;-55
2023/03/09 12:45:39;;;;;;;13.25;1.80;;;;;;;;;;5023122;28;20033;-55
2023/03/09 12:48:20;;;;;;;9.63;1.80;;;;;;;;;;5025958;28;20037;-55
2023/03/09 12:50:46;;;;;;;14.10;2.75;;;;;;;;;;5024818;28;20833;-55
2023/03/09 12:53:14;;;;;;;13.82;2.28;;;;;;;;;;5025435;28;20476;-53
2023/03/09 12:55:39;;;;;;;17.30;2.45;;;;;;;;;;5024969;28;20045;-56
2023/03/09 12:58:17;;;;;;;13.30;2.30;;;;;;;;;;5021824;28;20092;-55
2023/03/09 13:00:57;;;;;;;16.02;2.60;;;;;;;;;;5022242;28;20537;-55
2023/03/09 13:03:28;;;;;;;12.07;1.83;;;;;;;;;;5024952;28;20168;-56
2023/03/09 13:05:54;;;;;;;8.70;2.05;;;;;;;;;;5017825;28;20063;-56
2023/03/09 13:08:31;;;;;;;10.70;2.55;;;;;;;;;;5023585;28;20156;-55
2023/03/09 13:11:24;;;;;;;9.30;1.88;;;;;;;;;;5024648;28;20451;-53
2023/03/09 13:14:14;;;;;;;11.47;1.97;;;;;;;;;;5024067;28;20065;-55
2023/03/09 13:16:48;;;;;;;5.18;1.35;;;;;;;;;;5019797;28;20053;-53
2023/03/09 13:19:15;;;;;;;11.82;1.83;;;;;;;;;;5011313;28;20799;-55
2023/03/09 13:21:42;;;;;;;7.65;1.75;;;;;;;;;;5022484;28;20643;-56
2023/03/09 13:24:14;;;;;;;12.45;1.90;;;;;;;;;;5023640;28;20155;-54
2023/03/09 13:26:43;;;;;;;8.57;1.90;;;;;;;;;;5023528;28;20033;-55
2023/03/09 13:29:09;;;;;;;14.23;2.30;;;;;;;;;;5025136;28;20147;-55
2023/03/09 13:31:34;;;;;;;6.90;1.52;;;;;;;;;;5023668;28;20049;-56
2023/03/09 13:34:00;;;;;;;15.27;1.92;;;;;;;;;;5023185;28;20034;-53
2023/03/09 13:36:27;;;;;;;19.33;2.92;;;;;;;;;;5021945;28;20029;-55
2023/03/09 13:39:05;;;;;;;14.07;1.90;;;;;;;;;;5024021;28;20034;-54
2023/03/09 13:41:32;;;;;;;9.93;1.90;;;;;;;;;;5023759;28;20026;-56
2023/03/09 13:43:58;;;;;;;14.18;2.15;;;;;;;;;;5024910;28;20040;-56
2023/03/09 13:46:35;;;;;;;11.25;1.80;;;;;;;;;;5023405;28;20430;-55
2023/03/09 13:49:07;;;;;;;8.50;1.98;;;;;;;;;;5023870;28;20045;-55
2023/03/09 13:51:37;;;;;;;9.05;1.92;;;;;;;;;;5022820;28;20048;-55
2023/03/09 13:54:04;;;;;;;8.00;1.70;;;;;;;;;;5025239;28;20029;-56
2023/03/09 13:56:31;;;;;;;14.73;3.03;;;;;;;;;;5028284;28;20031;-55
2023/03/09 13:58:58;;;;;;;11.82;2.05;;;;;;;;;;5028692;28;20022;-54
2023/03/09 14:01:28;;;;;;;11.65;1.88;;;;;;;;;;5026125;28;20473;-56
2023/03/09 14:03:58;;;;;;;12.52;2.47;;;;;;;;;;5027837;28;20037;-55
2023/03/09 14:06:29;;;;;;;7.85;2.17;;;;;;;;;;5027733;28;20033;-55
2023/03/09 14:08:57;;;;;;;10.93;1.88;;;;;;;;;;5023755;28;20507;-55
2023/03/09 14:11:25;;;;;;;10.27;1.63;;;;;;;;;;5027359;28;20025;-55
2023/03/09 14:14:08;;;;;;;13.02;2.10;;;;;;;;;;5028108;28;20102;-55
2023/03/09 14:16:35;;;;;;;12.43;2.03;;;;;;;;;;5027559;28;20141;-55
2023/03/09 14:19:02;;;;;;;18.33;2.85;;;;;;;;;;5032184;28;20036;-56
2023/03/09 14:21:32;;;;;;;17.90;2.33;;;;;;;;;;5031967;28;20038;-56
2023/03/09 14:24:16;;;;;;;12.75;2.28;;;;;;;;;;5034434;28;20875;-54
2023/03/09 14:26:42;;;;;;;8.27;1.83;;;;;;;;;;5044907;28;20025;-56
2023/03/09 14:29:14;;;;;;;11.60;2.45;;;;;;;;;;5047334;28;20610;-55
2023/03/09 14:31:39;;;;;;;10.25;1.80;;;;;;;;;;5047077;28;20056;-55
2023/03/09 14:34:15;;;;;;;17.50;2.58;;;;;;;;;;5046837;28;20629;-55
2023/03/09 14:36:55;;;;;;;9.00;1.90;;;;;;;;;;5022022;28;20050;-55
2023/03/09 14:39:30;;;;;;;9.10;1.60;;;;;;;;;;5026797;28;20156;-56